Terminal Aerodrome Forecast
Issued by NWS Amarillo, TX

Home | Current Version | Previous Version | Text Only | Print | Product List | Glossary On
Versions: 1 2 3 4 5 6 7 8 9 10 11 12 13 14
000
FTUS44 KAMA 291100
TAFGUY
TAF
KGUY 291120Z 2912/3012 35016KT P6SM OVC250
     FM291500 01019G28KT P6SM OVC250
     FM300000 05008KT P6SM OVC200
     FM300800 14008KT P6SM OVC200=

USA.gov is the U.S. government's official web portal to all federal, state and local government web resources and services.